sensor_id;sensor_type;location;lat;lon;timestamp;P1;P2;P0
36519;PMS5003;40269;46.742;9.778;2023-02-08T00:00:11;7;6;
36519;PMS5003;40269;46.742;9.778;2023-02-08T00:02:40;4;4;
36519;PMS5003;40269;46.742;9.778;2023-02-08T00:05:07;10;4;
36519;PMS5003;40269;46.742;9.778;2023-02-08T00:07:35;4;4;
36519;PMS5003;40269;46.742;9.778;2023-02-08T00:10:02;4;4;
36519;PMS5003;40269;46.742;9.778;2023-02-08T00:12:30;4;3;
36519;PMS5003;40269;46.742;9.778;2023-02-08T00:14:58;6;4;
36519;PMS5003;40269;46.742;9.778;2023-02-08T00:17:25;3;3;
36519;PMS5003;40269;46.742;9.778;2023-02-08T00:19:52;4;4;
36519;PMS5003;40269;46.742;9.778;2023-02-08T00:22:20;4;4;
36519;PMS5003;40269;46.742;9.778;2023-02-08T00:24:48;3;3;
36519;PMS5003;40269;46.742;9.778;2023-02-08T00:27:15;10;6;
36519;PMS5003;40269;46.742;9.778;2023-02-08T00:29:43;6;6;
36519;PMS5003;40269;46.742;9.778;2023-02-08T00:32:10;7;6;
36519;PMS5003;40269;46.742;9.778;2023-02-08T00:34:37;6;6;
36519;PMS5003;40269;46.742;9.778;2023-02-08T00:37:05;4;4;
36519;PMS5003;40269;46.742;9.778;2023-02-08T00:39:32;4;4;
36519;PMS5003;40269;46.742;9.778;2023-02-08T00:41:59;6;3;
36519;PMS5003;40269;46.742;9.778;2023-02-08T00:44:27;6;3;
36519;PMS5003;40269;46.742;9.778;2023-02-08T00:46:54;7;4;
36519;PMS5003;40269;46.742;9.778;2023-02-08T00:49:21;6;6;
36519;PMS5003;40269;46.742;9.778;2023-02-08T00:51:49;6;4;
36519;PMS5003;40269;46.742;9.778;2023-02-08T00:54:16;6;6;
36519;PMS5003;40269;46.742;9.778;2023-02-08T00:56:46;9;6;
36519;PMS5003;40269;46.742;9.778;2023-02-08T00:59:13;4;4;
36519;PMS5003;40269;46.742;9.778;2023-02-08T01:01:41;6;6;
36519;PMS5003;40269;46.742;9.778;2023-02-08T01:04:09;12;9;
36519;PMS5003;40269;46.742;9.778;2023-02-08T01:06:36;7;6;
36519;PMS5003;40269;46.742;9.778;2023-02-08T01:09:03;4;4;
36519;PMS5003;40269;46.742;9.778;2023-02-08T01:11:30;12;9;
36519;PMS5003;40269;46.742;9.778;2023-02-08T01:13:57;7;6;
36519;PMS5003;40269;46.742;9.778;2023-02-08T01:16:25;7;4;
36519;PMS5003;40269;46.742;9.778;2023-02-08T01:18:55;6;6;
36519;PMS5003;40269;46.742;9.778;2023-02-08T01:21:24;3;3;
36519;PMS5003;40269;46.742;9.778;2023-02-08T01:23:52;4;4;
36519;PMS5003;40269;46.742;9.778;2023-02-08T01:26:20;6;4;
36519;PMS5003;40269;46.742;9.778;2023-02-08T01:28:48;4;3;
36519;PMS5003;40269;46.742;9.778;2023-02-08T01:31:16;6;3;
36519;PMS5003;40269;46.742;9.778;2023-02-08T01:33:46;4;4;
36519;PMS5003;40269;46.742;9.778;2023-02-08T01:36:13;3;3;
36519;PMS5003;40269;46.742;9.778;2023-02-08T01:38:41;6;3;
36519;PMS5003;40269;46.742;9.778;2023-02-08T01:41:10;4;4;
36519;PMS5003;40269;46.742;9.778;2023-02-08T01:43:57;4;4;
36519;PMS5003;40269;46.742;9.778;2023-02-08T01:46:27;6;3;
36519;PMS5003;40269;46.742;9.778;2023-02-08T01:48:54;4;4;
36519;PMS5003;40269;46.742;9.778;2023-02-08T01:51:24;3;3;
36519;PMS5003;40269;46.742;9.778;2023-02-08T01:53:55;6;6;
36519;PMS5003;40269;46.742;9.778;2023-02-08T01:56:24;3;3;
36519;PMS5003;40269;46.742;9.778;2023-02-08T01:58:55;4;4;
36519;PMS5003;40269;46.742;9.778;2023-02-08T02:01:25;6;4;
36519;PMS5003;40269;46.742;9.778;2023-02-08T02:03:55;4;4;
36519;PMS5003;40269;46.742;9.778;2023-02-08T02:06:23;4;4;
36519;PMS5003;40269;46.742;9.778;2023-02-08T02:08:55;3;3;
36519;PMS5003;40269;46.742;9.778;2023-02-08T02:11:35;6;6;
36519;PMS5003;40269;46.742;9.778;2023-02-08T02:14:02;6;6;
36519;PMS5003;40269;46.742;9.778;2023-02-08T02:16:30;4;4;
36519;PMS5003;40269;46.742;9.778;2023-02-08T02:18:58;7;1;
36519;PMS5003;40269;46.742;9.778;2023-02-08T02:21:30;3;1;
36519;PMS5003;40269;46.742;9.778;2023-02-08T02:24:18;1;1;
36519;PMS5003;40269;46.742;9.778;2023-02-08T02:27:06;1;1;
36519;PMS5003;40269;46.742;9.778;2023-02-08T02:29:48;4;3;
36519;PMS5003;40269;46.742;9.778;2023-02-08T02:33:01;6;4;
36519;PMS5003;40269;46.742;9.778;2023-02-08T02:35:40;4;3;
36519;PMS5003;40269;46.742;9.778;2023-02-08T02:38:13;3;3;
36519;PMS5003;40269;46.742;9.778;2023-02-08T02:40:49;1;1;
36519;PMS5003;40269;46.742;9.778;2023-02-08T02:43:29;4;1;
36519;PMS5003;40269;46.742;9.778;2023-02-08T02:46:06;4;3;
36519;PMS5003;40269;46.742;9.778;2023-02-08T02:48:41;1;1;
36519;PMS5003;40269;46.742;9.778;2023-02-08T02:51:16;3;3;
36519;PMS5003;40269;46.742;9.778;2023-02-08T02:53:51;4;4;
36519;PMS5003;40269;46.742;9.778;2023-02-08T02:56:24;21;19;
36519;PMS5003;40269;46.742;9.778;2023-02-08T02:58:55;4;4;
36519;PMS5003;40269;46.742;9.778;2023-02-08T03:01:27;6;3;
36519;PMS5003;40269;46.742;9.778;2023-02-08T03:03:55;4;4;
36519;PMS5003;40269;46.742;9.778;2023-02-08T03:06:26;3;3;
36519;PMS5003;40269;46.742;9.778;2023-02-08T03:09:06;1;1;
36519;PMS5003;40269;46.742;9.778;2023-02-08T03:11:46;6;4;
36519;PMS5003;40269;46.742;9.778;2023-02-08T03:14:26;3;3;
36519;PMS5003;40269;46.742;9.778;2023-02-08T03:17:01;3;3;
36519;PMS5003;40269;46.742;9.778;2023-02-08T03:19:48;1;1;
36519;PMS5003;40269;46.742;9.778;2023-02-08T03:22:21;3;3;
36519;PMS5003;40269;46.742;9.778;2023-02-08T03:24:55;4;4;
36519;PMS5003;40269;46.742;9.778;2023-02-08T03:27:29;3;3;
36519;PMS5003;40269;46.742;9.778;2023-02-08T03:30:03;4;3;
36519;PMS5003;40269;46.742;9.778;2023-02-08T03:32:39;7;6;
36519;PMS5003;40269;46.742;9.778;2023-02-08T03:35:13;6;4;
36519;PMS5003;40269;46.742;9.778;2023-02-08T03:37:44;4;4;
36519;PMS5003;40269;46.742;9.778;2023-02-08T03:40:15;7;6;
36519;PMS5003;40269;46.742;9.778;2023-02-08T03:42:46;3;3;
36519;PMS5003;40269;46.742;9.778;2023-02-08T03:45:15;4;4;
36519;PMS5003;40269;46.742;9.778;2023-02-08T03:47:47;1;1;
36519;PMS5003;40269;46.742;9.778;2023-02-08T03:50:17;4;3;
36519;PMS5003;40269;46.742;9.778;2023-02-08T03:52:48;4;4;
36519;PMS5003;40269;46.742;9.778;2023-02-08T03:55:19;3;3;
36519;PMS5003;40269;46.742;9.778;2023-02-08T03:57:49;3;3;
36519;PMS5003;40269;46.742;9.778;2023-02-08T04:00:19;3;3;
36519;PMS5003;40269;46.742;9.778;2023-02-08T04:02:51;4;4;
36519;PMS5003;40269;46.742;9.778;2023-02-08T04:05:22;4;4;
36519;PMS5003;40269;46.742;9.778;2023-02-08T04:07:50;6;3;
36519;PMS5003;40269;46.742;9.778;2023-02-08T04:10:18;4;4;
36519;PMS5003;40269;46.742;9.778;2023-02-08T04:12:46;4;3;
36519;PMS5003;40269;46.742;9.778;2023-02-08T04:15:14;6;4;
36519;PMS5003;40269;46.742;9.778;2023-02-08T04:17:41;3;3;
36519;PMS5003;40269;46.742;9.778;2023-02-08T04:20:09;7;6;
36519;PMS5003;40269;46.742;9.778;2023-02-08T04:22:36;7;4;
36519;PMS5003;40269;46.742;9.778;2023-02-08T04:25:04;1;1;
36519;PMS5003;40269;46.742;9.778;2023-02-08T04:27:31;6;4;
36519;PMS5003;40269;46.742;9.778;2023-02-08T04:29:59;4;4;
36519;PMS5003;40269;46.742;9.778;2023-02-08T04:32:26;4;4;
36519;PMS5003;40269;46.742;9.778;2023-02-08T04:34:54;6;4;
36519;PMS5003;40269;46.742;9.778;2023-02-08T04:37:21;3;3;
36519;PMS5003;40269;46.742;9.778;2023-02-08T04:39:48;6;4;
36519;PMS5003;40269;46.742;9.778;2023-02-08T04:42:16;3;3;
36519;PMS5003;40269;46.742;9.778;2023-02-08T04:44:43;6;4;
36519;PMS5003;40269;46.742;9.778;2023-02-08T04:47:10;3;3;
36519;PMS5003;40269;46.742;9.778;2023-02-08T04:49:37;4;3;
36519;PMS5003;40269;46.742;9.778;2023-02-08T04:52:05;3;1;
36519;PMS5003;40269;46.742;9.778;2023-02-08T04:54:32;3;3;
36519;PMS5003;40269;46.742;9.778;2023-02-08T04:56:59;4;3;
36519;PMS5003;40269;46.742;9.778;2023-02-08T04:59:27;4;4;
36519;PMS5003;40269;46.742;9.778;2023-02-08T05:01:54;3;3;
36519;PMS5003;40269;46.742;9.778;2023-02-08T05:04:22;6;4;
36519;PMS5003;40269;46.742;9.778;2023-02-08T05:06:48;3;3;
36519;PMS5003;40269;46.742;9.778;2023-02-08T05:09:15;4;4;
36519;PMS5003;40269;46.742;9.778;2023-02-08T05:11:41;6;4;
36519;PMS5003;40269;46.742;9.778;2023-02-08T05:14:09;1;1;
36519;PMS5003;40269;46.742;9.778;2023-02-08T05:16:36;6;6;
36519;PMS5003;40269;46.742;9.778;2023-02-08T05:19:03;4;3;
36519;PMS5003;40269;46.742;9.778;2023-02-08T05:21:30;4;3;
36519;PMS5003;40269;46.742;9.778;2023-02-08T05:23:57;7;6;
36519;PMS5003;40269;46.742;9.778;2023-02-08T05:26:25;4;1;
36519;PMS5003;40269;46.742;9.778;2023-02-08T05:28:52;6;6;
36519;PMS5003;40269;46.742;9.778;2023-02-08T05:31:20;4;4;
36519;PMS5003;40269;46.742;9.778;2023-02-08T05:33:49;6;4;
36519;PMS5003;40269;46.742;9.778;2023-02-08T05:36:16;1;1;
36519;PMS5003;40269;46.742;9.778;2023-02-08T05:38:44;6;3;
36519;PMS5003;40269;46.742;9.778;2023-02-08T05:41:11;3;3;
36519;PMS5003;40269;46.742;9.778;2023-02-08T05:43:38;3;3;
36519;PMS5003;40269;46.742;9.778;2023-02-08T05:46:06;1;1;
36519;PMS5003;40269;46.742;9.778;2023-02-08T05:48:33;1;1;
36519;PMS5003;40269;46.742;9.778;2023-02-08T05:51:01;1;1;
36519;PMS5003;40269;46.742;9.778;2023-02-08T05:53:28;1;1;
36519;PMS5003;40269;46.742;9.778;2023-02-08T05:55:55;6;4;
36519;PMS5003;40269;46.742;9.778;2023-02-08T05:58:23;7;6;
36519;PMS5003;40269;46.742;9.778;2023-02-08T06:00:50;3;3;
36519;PMS5003;40269;46.742;9.778;2023-02-08T06:03:18;3;3;
36519;PMS5003;40269;46.742;9.778;2023-02-08T06:05:45;6;6;
36519;PMS5003;40269;46.742;9.778;2023-02-08T06:08:12;7;6;
36519;PMS5003;40269;46.742;9.778;2023-02-08T06:10:40;7;6;
36519;PMS5003;40269;46.742;9.778;2023-02-08T06:13:07;10;7;
36519;PMS5003;40269;46.742;9.778;2023-02-08T06:15:34;6;6;
36519;PMS5003;40269;46.742;9.778;2023-02-08T06:18:01;7;6;
36519;PMS5003;40269;46.742;9.778;2023-02-08T06:20:29;6;6;
36519;PMS5003;40269;46.742;9.778;2023-02-08T06:22:56;9;9;
36519;PMS5003;40269;46.742;9.778;2023-02-08T06:25:22;7;6;
36519;PMS5003;40269;46.742;9.778;2023-02-08T06:27:50;6;6;
36519;PMS5003;40269;46.742;9.778;2023-02-08T06:30:16;7;6;
36519;PMS5003;40269;46.742;9.778;2023-02-08T06:32:44;6;4;
36519;PMS5003;40269;46.742;9.778;2023-02-08T06:35:11;9;7;
36519;PMS5003;40269;46.742;9.778;2023-02-08T06:37:39;6;6;
36519;PMS5003;40269;46.742;9.778;2023-02-08T06:40:07;7;6;
36519;PMS5003;40269;46.742;9.778;2023-02-08T06:42:34;7;7;
36519;PMS5003;40269;46.742;9.778;2023-02-08T06:45:02;10;10;
36519;PMS5003;40269;46.742;9.778;2023-02-08T06:47:29;12;10;
36519;PMS5003;40269;46.742;9.778;2023-02-08T06:49:56;12;12;
36519;PMS5003;40269;46.742;9.778;2023-02-08T06:52:24;30;24;
36519;PMS5003;40269;46.742;9.778;2023-02-08T06:54:51;42;30;
36519;PMS5003;40269;46.742;9.778;2023-02-08T06:57:18;24;22;
36519;PMS5003;40269;46.742;9.778;2023-02-08T06:59:45;25;21;
36519;PMS5003;40269;46.742;9.778;2023-02-08T07:02:14;16;13;
36519;PMS5003;40269;46.742;9.778;2023-02-08T07:04:42;51;48;
36519;PMS5003;40269;46.742;9.778;2023-02-08T07:07:10;73;69;
36519;PMS5003;40269;46.742;9.778;2023-02-08T07:09:37;25;25;
36519;PMS5003;40269;46.742;9.778;2023-02-08T07:12:04;25;25;
36519;PMS5003;40269;46.742;9.778;2023-02-08T07:14:31;21;16;
36519;PMS5003;40269;46.742;9.778;2023-02-08T07:17:00;12;12;
36519;PMS5003;40269;46.742;9.778;2023-02-08T07:19:28;22;15;
36519;PMS5003;40269;46.742;9.778;2023-02-08T07:21:56;24;16;
36519;PMS5003;40269;46.742;9.778;2023-02-08T07:24:23;15;15;
36519;PMS5003;40269;46.742;9.778;2023-02-08T07:26:50;12;12;
36519;PMS5003;40269;46.742;9.778;2023-02-08T07:29:16;15;15;
36519;PMS5003;40269;46.742;9.778;2023-02-08T07:31:43;9;7;
36519;PMS5003;40269;46.742;9.778;2023-02-08T07:34:10;12;10;
36519;PMS5003;40269;46.742;9.778;2023-02-08T07:36:38;22;22;
36519;PMS5003;40269;46.742;9.778;2023-02-08T07:39:05;28;28;
36519;PMS5003;40269;46.742;9.778;2023-02-08T07:41:32;33;31;
36519;PMS5003;40269;46.742;9.778;2023-02-08T07:43:59;30;25;
36519;PMS5003;40269;46.742;9.778;2023-02-08T07:46:27;28;25;
36519;PMS5003;40269;46.742;9.778;2023-02-08T07:48:54;28;28;
36519;PMS5003;40269;46.742;9.778;2023-02-08T07:51:21;19;16;
36519;PMS5003;40269;46.742;9.778;2023-02-08T07:53:48;10;10;
36519;PMS5003;40269;46.742;9.778;2023-02-08T07:56:16;10;10;
36519;PMS5003;40269;46.742;9.778;2023-02-08T07:58:43;13;9;
36519;PMS5003;40269;46.742;9.778;2023-02-08T08:01:10;13;12;
36519;PMS5003;40269;46.742;9.778;2023-02-08T08:03:37;16;15;
36519;PMS5003;40269;46.742;9.778;2023-02-08T08:06:09;18;16;
36519;PMS5003;40269;46.742;9.778;2023-02-08T08:08:36;21;15;
36519;PMS5003;40269;46.742;9.778;2023-02-08T08:11:02;18;16;
36519;PMS5003;40269;46.742;9.778;2023-02-08T08:13:29;12;12;
36519;PMS5003;40269;46.742;9.778;2023-02-08T08:15:56;15;15;
36519;PMS5003;40269;46.742;9.778;2023-02-08T08:18:22;18;18;
36519;PMS5003;40269;46.742;9.778;2023-02-08T08:20:49;19;12;
36519;PMS5003;40269;46.742;9.778;2023-02-08T08:23:16;18;15;
36519;PMS5003;40269;46.742;9.778;2023-02-08T08:25:43;16;12;
36519;PMS5003;40269;46.742;9.778;2023-02-08T08:28:10;7;7;
36519;PMS5003;40269;46.742;9.778;2023-02-08T08:30:40;15;12;
36519;PMS5003;40269;46.742;9.778;2023-02-08T08:33:08;10;10;
36519;PMS5003;40269;46.742;9.778;2023-02-08T08:35:36;18;18;
36519;PMS5003;40269;46.742;9.778;2023-02-08T08:38:03;22;18;
36519;PMS5003;40269;46.742;9.778;2023-02-08T08:40:30;21;21;
36519;PMS5003;40269;46.742;9.778;2023-02-08T08:42:57;18;16;
36519;PMS5003;40269;46.742;9.778;2023-02-08T08:45:25;19;16;
36519;PMS5003;40269;46.742;9.778;2023-02-08T08:47:52;28;22;
36519;PMS5003;40269;46.742;9.778;2023-02-08T08:50:19;42;33;
36519;PMS5003;40269;46.742;9.778;2023-02-08T08:52:47;22;21;
36519;PMS5003;40269;46.742;9.778;2023-02-08T08:55:13;27;19;
36519;PMS5003;40269;46.742;9.778;2023-02-08T08:57:40;27;24;
36519;PMS5003;40269;46.742;9.778;2023-02-08T09:00:08;41;32;
36519;PMS5003;40269;46.742;9.778;2023-02-08T09:02:37;31;26;
36519;PMS5003;40269;46.742;9.778;2023-02-08T09:05:04;23;20;
36519;PMS5003;40269;46.742;9.778;2023-02-08T09:07:31;17;14;
36519;PMS5003;40269;46.742;9.778;2023-02-08T09:09:59;21;19;
36519;PMS5003;40269;46.742;9.778;2023-02-08T09:12:26;16;15;
36519;PMS5003;40269;46.742;9.778;2023-02-08T09:14:52;29;25;
36519;PMS5003;40269;46.742;9.778;2023-02-08T09:17:19;21;20;
36519;PMS5003;40269;46.742;9.778;2023-02-08T09:19:46;33;31;
36519;PMS5003;40269;46.742;9.778;2023-02-08T09:22:13;115;108;
36519;PMS5003;40269;46.742;9.778;2023-02-08T09:24:40;30;28;
36519;PMS5003;40269;46.742;9.778;2023-02-08T09:27:07;31;29;
36519;PMS5003;40269;46.742;9.778;2023-02-08T09:29:35;48;44;
36519;PMS5003;40269;46.742;9.778;2023-02-08T09:32:01;32;31;
36519;PMS5003;40269;46.742;9.778;2023-02-08T09:34:29;26;22;
36519;PMS5003;40269;46.742;9.778;2023-02-08T09:36:56;16;15;
36519;PMS5003;40269;46.742;9.778;2023-02-08T09:39:23;21;19;
36519;PMS5003;40269;46.742;9.778;2023-02-08T09:41:56;14;14;
36519;PMS5003;40269;46.742;9.778;2023-02-08T09:44:54;18;15;
36519;PMS5003;40269;46.742;9.778;2023-02-08T09:47:31;24;19;
36519;PMS5003;40269;46.742;9.778;2023-02-08T09:50:02;13;11;
36519;PMS5003;40269;46.742;9.778;2023-02-08T09:52:36;7;7;
36519;PMS5003;40269;46.742;9.778;2023-02-08T09:55:12;15;13;
36519;PMS5003;40269;46.742;9.778;2023-02-08T09:57:46;12;8;
36519;PMS5003;40269;46.742;9.778;2023-02-08T10:00:18;96;82;
36519;PMS5003;40269;46.742;9.778;2023-02-08T10:02:50;24;21;
36519;PMS5003;40269;46.742;9.778;2023-02-08T10:05:19;43;39;
36519;PMS5003;40269;46.742;9.778;2023-02-08T10:07:49;13;11;
36519;PMS5003;40269;46.742;9.778;2023-02-08T10:10:18;18;18;
36519;PMS5003;40269;46.742;9.778;2023-02-08T10:12:58;12;11;
36519;PMS5003;40269;46.742;9.778;2023-02-08T10:15:40;16;12;
36519;PMS5003;40269;46.742;9.778;2023-02-08T10:18:16;18;18;
36519;PMS5003;40269;46.742;9.778;2023-02-08T10:21:00;25;20;
36519;PMS5003;40269;46.742;9.778;2023-02-08T10:23:42;21;18;
36519;PMS5003;40269;46.742;9.778;2023-02-08T10:26:25;16;15;
36519;PMS5003;40269;46.742;9.778;2023-02-08T10:29:05;17;13;
36519;PMS5003;40269;46.742;9.778;2023-02-08T10:31:50;12;12;
36519;PMS5003;40269;46.742;9.778;2023-02-08T10:34:57;6;6;
36519;PMS5003;40269;46.742;9.778;2023-02-08T10:37:29;13;12;
36519;PMS5003;40269;46.742;9.778;2023-02-08T10:39:59;7;6;
36519;PMS5003;40269;46.742;9.778;2023-02-08T10:42:39;8;8;
36519;PMS5003;40269;46.742;9.778;2023-02-08T10:45:14;6;6;
36519;PMS5003;40269;46.742;9.778;2023-02-08T10:47:47;8;8;
36519;PMS5003;40269;46.742;9.778;2023-02-08T10:50:19;3;2;
36519;PMS5003;40269;46.742;9.778;2023-02-08T10:52:52;3;2;
36519;PMS5003;40269;46.742;9.778;2023-02-08T10:55:20;4;2;
36519;PMS5003;40269;46.742;9.778;2023-02-08T10:57:48;4;3;
36519;PMS5003;40269;46.742;9.778;2023-02-08T11:00:19;2;2;
36519;PMS5003;40269;46.742;9.778;2023-02-08T11:02:49;3;2;
36519;PMS5003;40269;46.742;9.778;2023-02-08T11:05:18;1;1;
36519;PMS5003;40269;46.742;9.778;2023-02-08T11:07:46;1;1;
36519;PMS5003;40269;46.742;9.778;2023-02-08T11:10:15;3;3;
36519;PMS5003;40269;46.742;9.778;2023-02-08T11:12:56;2;2;
36519;PMS5003;40269;46.742;9.778;2023-02-08T11:15:25;4;3;
36519;PMS5003;40269;46.742;9.778;2023-02-08T11:17:56;1;1;
36519;PMS5003;40269;46.742;9.778;2023-02-08T11:20:28;2;2;
36519;PMS5003;40269;46.742;9.778;2023-02-08T11:22:59;3;2;
36519;PMS5003;40269;46.742;9.778;2023-02-08T11:25:31;2;2;
36519;PMS5003;40269;46.742;9.778;2023-02-08T11:28:00;3;2;
36519;PMS5003;40269;46.742;9.778;2023-02-08T11:30:27;1;1;
36519;PMS5003;40269;46.742;9.778;2023-02-08T11:33:27;1;1;
36519;PMS5003;40269;46.742;9.778;2023-02-08T11:35:57;1;1;
36519;PMS5003;40269;46.742;9.778;2023-02-08T11:38:30;1;0;
36519;PMS5003;40269;46.742;9.778;2023-02-08T11:41:00;2;2;
36519;PMS5003;40269;46.742;9.778;2023-02-08T11:43:30;2;2;
36519;PMS5003;40269;46.742;9.778;2023-02-08T11:46:00;2;2;
36519;PMS5003;40269;46.742;9.778;2023-02-08T11:48:34;1;1;
36519;PMS5003;40269;46.742;9.778;2023-02-08T11:51:06;2;2;
36519;PMS5003;40269;46.742;9.778;2023-02-08T11:53:36;3;2;
36519;PMS5003;40269;46.742;9.778;2023-02-08T11:56:10;4;3;
36519;PMS5003;40269;46.742;9.778;2023-02-08T11:58:54;1;1;
36519;PMS5003;40269;46.742;9.778;2023-02-08T12:01:25;0;0;
36519;PMS5003;40269;46.742;9.778;2023-02-08T12:03:53;1;1;
36519;PMS5003;40269;46.742;9.778;2023-02-08T12:06:27;0;0;
36519;PMS5003;40269;46.742;9.778;2023-02-08T12:09:06;0;0;
36519;PMS5003;40269;46.742;9.778;2023-02-08T12:11:40;2;1;
36519;PMS5003;40269;46.742;9.778;2023-02-08T12:14:16;1;1;
36519;PMS5003;40269;46.742;9.778;2023-02-08T12:16:56;2;2;
36519;PMS5003;40269;46.742;9.778;2023-02-08T12:19:44;0;0;
36519;PMS5003;40269;46.742;9.778;2023-02-08T12:22:24;0;0;
36519;PMS5003;40269;46.742;9.778;2023-02-08T12:24:54;0;0;
36519;PMS5003;40269;46.742;9.778;2023-02-08T12:27:38;0;0;
36519;PMS5003;40269;46.742;9.778;2023-02-08T12:30:12;0;0;
36519;PMS5003;40269;46.742;9.778;2023-02-08T12:32:51;0;0;
36519;PMS5003;40269;46.742;9.778;2023-02-08T12:35:37;2;1;
36519;PMS5003;40269;46.742;9.778;2023-02-08T12:38:14;1;1;
36519;PMS5003;40269;46.742;9.778;2023-02-08T12:40:51;1;1;
36519;PMS5003;40269;46.742;9.778;2023-02-08T12:43:33;0;0;
36519;PMS5003;40269;46.742;9.778;2023-02-08T12:46:14;1;1;
36519;PMS5003;40269;46.742;9.778;2023-02-08T12:48:56;1;1;
36519;PMS5003;40269;46.742;9.778;2023-02-08T12:51:47;1;0;
36519;PMS5003;40269;46.742;9.778;2023-02-08T12:54:23;0;0;
36519;PMS5003;40269;46.742;9.778;2023-02-08T12:56:55;0;0;
36519;PMS5003;40269;46.742;9.778;2023-02-08T12:59:25;0;0;
36519;PMS5003;40269;46.742;9.778;2023-02-08T13:01:58;1;1;
36519;PMS5003;40269;46.742;9.778;2023-02-08T13:04:28;0;0;
36519;PMS5003;40269;46.742;9.778;2023-02-08T13:07:00;0;0;
36519;PMS5003;40269;46.742;9.778;2023-02-08T13:09:34;0;0;
36519;PMS5003;40269;46.742;9.778;2023-02-08T13:12:12;0;0;
36519;PMS5003;40269;46.742;9.778;2023-02-08T13:14:44;1;1;
36519;PMS5003;40269;46.742;9.778;2023-02-08T13:17:16;0;0;
36519;PMS5003;40269;46.742;9.778;2023-02-08T13:19:49;1;0;
36519;PMS5003;40269;46.742;9.778;2023-02-08T13:22:19;0;0;
36519;PMS5003;40269;46.742;9.778;2023-02-08T13:24:47;0;0;
36519;PMS5003;40269;46.742;9.778;2023-02-08T13:27:17;0;0;
36519;PMS5003;40269;46.742;9.778;2023-02-08T13:29:46;2;1;
36519;PMS5003;40269;46.742;9.778;2023-02-08T13:32:15;0;0;
36519;PMS5003;40269;46.742;9.778;2023-02-08T13:34:45;1;1;
36519;PMS5003;40269;46.742;9.778;2023-02-08T13:37:18;0;0;
36519;PMS5003;40269;46.742;9.778;2023-02-08T13:39:48;0;0;
36519;PMS5003;40269;46.742;9.778;2023-02-08T13:42:18;0;0;
36519;PMS5003;40269;46.742;9.778;2023-02-08T13:44:53;1;1;
36519;PMS5003;40269;46.742;9.778;2023-02-08T13:47:23;0;0;
36519;PMS5003;40269;46.742;9.778;2023-02-08T13:49:54;1;1;
36519;PMS5003;40269;46.742;9.778;2023-02-08T13:52:53;1;1;
36519;PMS5003;40269;46.742;9.778;2023-02-08T13:56:36;0;0;
36519;PMS5003;40269;46.742;9.778;2023-02-08T13:59:09;0;0;
36519;PMS5003;40269;46.742;9.778;2023-02-08T14:02:24;0;0;
36519;PMS5003;40269;46.742;9.778;2023-02-08T14:04:54;0;0;
36519;PMS5003;40269;46.742;9.778;2023-02-08T14:07:58;2;2;
36519;PMS5003;40269;46.742;9.778;2023-02-08T14:10:31;1;1;
36519;PMS5003;40269;46.742;9.778;2023-02-08T14:13:01;1;1;
36519;PMS5003;40269;46.742;9.778;2023-02-08T14:15:33;0;0;
36519;PMS5003;40269;46.742;9.778;2023-02-08T14:18:03;1;1;
36519;PMS5003;40269;46.742;9.778;2023-02-08T14:20:53;1;1;
36519;PMS5003;40269;46.742;9.778;2023-02-08T14:23:26;1;1;
36519;PMS5003;40269;46.742;9.778;2023-02-08T14:25:54;1;0;
36519;PMS5003;40269;46.742;9.778;2023-02-08T14:28:26;0;0;
36519;PMS5003;40269;46.742;9.778;2023-02-08T14:30:57;5;5;
36519;PMS5003;40269;46.742;9.778;2023-02-08T14:33:26;1;1;
36519;PMS5003;40269;46.742;9.778;2023-02-08T14:35:57;1;0;
36519;PMS5003;40269;46.742;9.778;2023-02-08T14:38:32;0;0;
36519;PMS5003;40269;46.742;9.778;2023-02-08T14:41:49;0;0;
36519;PMS5003;40269;46.742;9.778;2023-02-08T14:46:44;1;1;
36519;PMS5003;40269;46.742;9.778;2023-02-08T14:49:11;2;2;
36519;PMS5003;40269;46.742;9.778;2023-02-08T14:51:40;2;2;
36519;PMS5003;40269;46.742;9.778;2023-02-08T14:54:16;1;1;
36519;PMS5003;40269;46.742;9.778;2023-02-08T14:56:53;1;1;
36519;PMS5003;40269;46.742;9.778;2023-02-08T14:59:24;3;3;
36519;PMS5003;40269;46.742;9.778;2023-02-08T15:01:55;2;1;
36519;PMS5003;40269;46.742;9.778;2023-02-08T15:04:25;2;2;
36519;PMS5003;40269;46.742;9.778;2023-02-08T15:06:59;12;5;
36519;PMS5003;40269;46.742;9.778;2023-02-08T15:09:39;2;1;
36519;PMS5003;40269;46.742;9.778;2023-02-08T15:12:10;0;0;
36519;PMS5003;40269;46.742;9.778;2023-02-08T15:14:41;0;0;
36519;PMS5003;40269;46.742;9.778;2023-02-08T15:17:15;0;0;
36519;PMS5003;40269;46.742;9.778;2023-02-08T15:19:48;2;1;
36519;PMS5003;40269;46.742;9.778;2023-02-08T15:22:24;0;0;
36519;PMS5003;40269;46.742;9.778;2023-02-08T15:24:57;5;3;
36519;PMS5003;40269;46.742;9.778;2023-02-08T15:27:27;4;4;
36519;PMS5003;40269;46.742;9.778;2023-02-08T15:29:55;9;9;
36519;PMS5003;40269;46.742;9.778;2023-02-08T15:32:23;4;4;
36519;PMS5003;40269;46.742;9.778;2023-02-08T15:34:52;3;2;
36519;PMS5003;40269;46.742;9.778;2023-02-08T15:37:22;1;1;
36519;PMS5003;40269;46.742;9.778;2023-02-08T15:39:50;2;2;
36519;PMS5003;40269;46.742;9.778;2023-02-08T15:42:21;2;1;
36519;PMS5003;40269;46.742;9.778;2023-02-08T15:44:50;1;1;
36519;PMS5003;40269;46.742;9.778;2023-02-08T15:47:20;1;1;
36519;PMS5003;40269;46.742;9.778;2023-02-08T15:49:52;4;3;
36519;PMS5003;40269;46.742;9.778;2023-02-08T15:52:20;2;2;
36519;PMS5003;40269;46.742;9.778;2023-02-08T15:54:52;3;3;
36519;PMS5003;40269;46.742;9.778;2023-02-08T15:57:21;7;6;
36519;PMS5003;40269;46.742;9.778;2023-02-08T15:59:59;0;0;
36519;PMS5003;40269;46.742;9.778;2023-02-08T16:02:28;6;6;
36519;PMS5003;40269;46.742;9.778;2023-02-08T16:04:56;42;40;
36519;PMS5003;40269;46.742;9.778;2023-02-08T16:07:26;18;17;
36519;PMS5003;40269;46.742;9.778;2023-02-08T16:09:56;9;8;
36519;PMS5003;40269;46.742;9.778;2023-02-08T16:12:24;5;5;
36519;PMS5003;40269;46.742;9.778;2023-02-08T16:14:53;15;11;
36519;PMS5003;40269;46.742;9.778;2023-02-08T16:17:37;16;14;
36519;PMS5003;40269;46.742;9.778;2023-02-08T16:20:26;21;17;
36519;PMS5003;40269;46.742;9.778;2023-02-08T16:22:55;25;17;
36519;PMS5003;40269;46.742;9.778;2023-02-08T16:25:29;6;5;
36519;PMS5003;40269;46.742;9.778;2023-02-08T16:28:00;11;7;
36519;PMS5003;40269;46.742;9.778;2023-02-08T16:30:28;9;6;
36519;PMS5003;40269;46.742;9.778;2023-02-08T16:32:55;11;7;
36519;PMS5003;40269;46.742;9.778;2023-02-08T16:35:25;14;11;
36519;PMS5003;40269;46.742;9.778;2023-02-08T16:37:55;20;14;
36519;PMS5003;40269;46.742;9.778;2023-02-08T16:40:42;16;15;
36519;PMS5003;40269;46.742;9.778;2023-02-08T16:43:15;14;14;
36519;PMS5003;40269;46.742;9.778;2023-02-08T16:45:45;10;10;
36519;PMS5003;40269;46.742;9.778;2023-02-08T16:48:38;10;7;
36519;PMS5003;40269;46.742;9.778;2023-02-08T16:51:06;11;10;
36519;PMS5003;40269;46.742;9.778;2023-02-08T16:53:37;15;10;
36519;PMS5003;40269;46.742;9.778;2023-02-08T16:56:04;9;7;
36519;PMS5003;40269;46.742;9.778;2023-02-08T16:58:35;7;7;
36519;PMS5003;40269;46.742;9.778;2023-02-08T17:01:02;12;11;
36519;PMS5003;40269;46.742;9.778;2023-02-08T17:03:29;11;7;
36519;PMS5003;40269;46.742;9.778;2023-02-08T17:05:56;10;7;
36519;PMS5003;40269;46.742;9.778;2023-02-08T17:08:25;10;6;
36519;PMS5003;40269;46.742;9.778;2023-02-08T17:10:52;5;3;